createdAt,value
2018-05-10T00:01:42.424Z,94074.98
2018-05-10T00:04:45.680Z,94077.33
2018-05-10T00:07:49.209Z,94071.56
2018-05-10T00:10:53.467Z,94073.58
2018-05-10T00:13:57.718Z,94073.80
2018-05-10T00:17:01.064Z,94067.94
2018-05-10T00:20:04.582Z,94069.34
2018-05-10T00:23:08.673Z,94065.85
2018-05-10T00:26:11.988Z,94071.94
2018-05-10T00:29:15.622Z,94067.54
2018-05-10T00:32:18.931Z,94074.91
2018-05-10T00:35:22.290Z,94061.15
2018-05-10T00:38:26.442Z,94063.64
2018-05-10T00:41:30.026Z,94066.39
2018-05-10T00:44:34.108Z,94066.77
2018-05-10T00:47:37.540Z,94064.12
2018-05-10T00:50:41.239Z,94063.52
2018-05-10T00:53:46.067Z,94058.80
2018-05-10T00:56:50.161Z,94057.93
2018-05-10T00:59:53.436Z,94061.58
2018-05-10T01:02:56.857Z,94057.08
2018-05-10T01:06:00.282Z,94063.09
2018-05-10T01:09:03.496Z,94070.95
2018-05-10T01:12:08.246Z,94072.41
2018-05-10T01:15:11.518Z,94074.72
2018-05-10T01:18:14.807Z,94079.59
2018-05-10T01:21:18.069Z,94084.84
2018-05-10T01:24:21.330Z,94089.46
2018-05-10T01:27:27.874Z,94086.65
2018-05-10T01:30:43.425Z,94089.29
2018-05-10T01:33:47.552Z,94089.81
2018-05-10T01:36:50.823Z,94093.61
2018-05-10T01:39:54.106Z,94090.05
2018-05-10T01:42:57.362Z,94091.09
2018-05-10T01:46:00.660Z,94095.60
2018-05-10T01:49:03.996Z,94090.94
2018-05-10T01:52:08.021Z,94089.56
2018-05-10T01:55:11.282Z,94083.42
2018-05-10T01:58:14.564Z,94082.67
2018-05-10T02:01:17.811Z,94088.09
2018-05-10T02:04:21.106Z,94083.40
2018-05-10T02:07:24.365Z,94082.05
2018-05-10T02:10:27.622Z,94084.54
2018-05-10T02:13:31.014Z,94081.38
2018-05-10T02:16:34.287Z,94074.78
2018-05-10T02:19:38.301Z,94080.78
2018-05-10T02:22:42.420Z,94079.15
2018-05-10T02:25:46.489Z,94079.83
2018-05-10T02:28:49.758Z,94079.53
2018-05-10T02:31:53.004Z,94081.79
2018-05-10T02:34:56.275Z,94079.64
2018-05-10T02:37:59.524Z,94081.88
2018-05-10T02:41:02.802Z,94083.98
2018-05-10T02:44:06.820Z,94079.15
2018-05-10T02:47:10.085Z,94087.92
2018-05-10T02:50:13.329Z,94097.34
2018-05-10T02:53:17.357Z,94103.33
2018-05-10T02:56:20.625Z,94104.14
2018-05-10T02:59:24.642Z,94098.89
2018-05-10T03:02:27.930Z,94099.91
2018-05-10T03:05:31.189Z,94097.29
2018-05-10T03:08:34.520Z,94092.59
2018-05-10T03:11:37.788Z,94094.94
2018-05-10T03:14:41.042Z,94090.14
2018-05-10T03:17:45.158Z,94090.08
2018-05-10T03:20:49.173Z,94090.11
2018-05-10T03:23:52.426Z,94098.12
2018-05-10T03:26:55.708Z,94091.77
2018-05-10T03:29:58.958Z,94088.08
2018-05-10T03:33:02.970Z,94092.20
2018-05-10T03:36:07.088Z,94098.51
2018-05-10T03:39:11.117Z,94104.32
2018-05-10T03:42:14.652Z,94099.88
2018-05-10T03:45:17.916Z,94106.52
2018-05-10T03:48:21.185Z,94112.91
2018-05-10T03:51:24.505Z,94116.35
2018-05-10T03:54:27.804Z,94115.13
2018-05-10T03:57:31.808Z,94114.58
2018-05-10T04:00:35.954Z,94116.73
2018-05-10T04:03:57.213Z,94115.12
2018-05-10T04:07:18.214Z,94119.38
2018-05-10T04:10:39.194Z,94125.28
2018-05-10T04:13:42.441Z,94122.35
2018-05-10T04:16:45.687Z,94128.13
2018-05-10T04:19:50.188Z,94119.94
2018-05-10T04:22:53.547Z,94126.73
2018-05-10T04:25:56.972Z,94121.45
2018-05-10T04:29:01.858Z,94131.67
2018-05-10T04:32:06.016Z,94131.20
2018-05-10T04:35:09.312Z,94139.83
2018-05-10T04:38:12.944Z,94134.38
2018-05-10T04:41:16.249Z,94145.70
2018-05-10T04:44:23.387Z,94143.00
2018-05-10T04:47:26.778Z,94143.91
2018-05-10T04:50:30.030Z,94141.28
2018-05-10T04:53:34.984Z,94141.13
2018-05-10T04:56:38.240Z,94140.59
2018-05-10T04:59:41.771Z,94147.70
2018-05-10T05:02:45.101Z,94148.00
2018-05-10T05:05:49.313Z,94148.27
2018-05-10T05:08:52.775Z,94155.21
2018-05-10T05:11:56.202Z,94156.69
2018-05-10T05:14:59.447Z,94155.63
2018-05-10T05:18:03.757Z,94150.91
2018-05-10T05:21:07.251Z,94153.50
2018-05-10T05:24:11.342Z,94147.55
2018-05-10T05:27:14.592Z,94152.24
2018-05-10T05:30:17.904Z,94153.89
2018-05-10T05:33:21.179Z,94152.23
2018-05-10T05:36:24.460Z,94150.94
2018-05-10T05:39:28.803Z,94158.16
2018-05-10T05:42:32.511Z,94151.33
2018-05-10T05:45:35.790Z,94159.88
2018-05-10T05:48:39.975Z,94153.98
2018-05-10T05:51:43.540Z,94159.07
2018-05-10T05:54:46.842Z,94162.63
2018-05-10T05:57:50.177Z,94166.59
2018-05-10T06:00:53.445Z,94163.84
2018-05-10T06:03:56.717Z,94166.10
2018-05-10T06:07:00.017Z,94166.25
2018-05-10T06:10:03.426Z,94165.80
2018-05-10T06:13:07.782Z,94170.37
2018-05-10T06:16:11.048Z,94175.88
2018-05-10T06:19:14.428Z,94173.18
2018-05-10T06:22:18.475Z,94179.98
2018-05-10T06:25:21.742Z,94178.48
2018-05-10T06:28:25.931Z,94183.48
2018-05-10T06:31:29.239Z,94188.25
2018-05-10T06:34:33.264Z,94194.80
2018-05-10T06:37:37.293Z,94198.70
2018-05-10T06:40:40.547Z,94200.23
2018-05-10T06:43:43.869Z,94211.27
2018-05-10T06:46:47.230Z,94212.55
2018-05-10T06:49:50.405Z,94217.81
2018-05-10T06:52:53.674Z,94220.84
2018-05-10T06:55:57.917Z,94216.09
2018-05-10T06:59:01.222Z,94224.11
2018-05-10T07:02:04.479Z,94226.13
2018-05-10T07:05:07.732Z,94231.59
2018-05-10T07:08:12.157Z,94240.07
2018-05-10T07:11:15.555Z,94243.89
2018-05-10T07:14:18.825Z,94243.70
2018-05-10T07:17:22.396Z,94249.60
2018-05-10T07:20:26.397Z,94250.73
2018-05-10T07:23:30.644Z,94255.48
2018-05-10T07:26:34.072Z,94257.38
2018-05-10T07:29:37.317Z,94254.80
2018-05-10T07:32:42.087Z,94260.07
2018-05-10T07:35:45.350Z,94254.55
2018-05-10T07:38:48.605Z,94263.34
2018-05-10T07:41:51.890Z,94268.34
2018-05-10T07:44:56.013Z,94274.11
2018-05-10T07:47:59.294Z,94276.17
2018-05-10T07:51:02.536Z,94282.51
2018-05-10T07:54:05.813Z,94282.42
2018-05-10T07:57:09.857Z,94292.66
2018-05-10T08:00:13.116Z,94290.09
2018-05-10T08:03:17.242Z,94295.30
2018-05-10T08:06:21.257Z,94296.34
2018-05-10T08:09:25.311Z,94297.57
2018-05-10T08:12:28.621Z,94302.02
2018-05-10T08:15:31.892Z,94307.58
2018-05-10T08:18:35.508Z,94308.49
2018-05-10T08:21:38.777Z,94309.80
2018-05-10T08:24:42.787Z,94304.97
2018-05-10T08:27:47.799Z,94311.20
2018-05-10T08:30:51.080Z,94311.48
2018-05-10T08:33:55.303Z,94318.30
2018-05-10T08:36:58.669Z,94317.96
2018-05-10T08:40:02.108Z,94319.17
2018-05-10T08:43:05.398Z,94322.61
2018-05-10T08:46:08.661Z,94327.55
2018-05-10T08:49:12.708Z,94332.28
2018-05-10T08:52:16.138Z,94328.75
2018-05-10T08:55:20.636Z,94339.65
2018-05-10T08:58:23.910Z,94333.30
2018-05-10T09:01:28.857Z,94340.24
2018-05-10T09:04:32.247Z,94349.62
2018-05-10T09:07:36.278Z,94353.30
2018-05-10T09:10:39.526Z,94353.16
2018-05-10T09:13:42.789Z,94354.28
2018-05-10T09:16:46.075Z,94352.13
2018-05-10T09:19:49.381Z,94362.14
2018-05-10T09:22:52.690Z,94365.50
2018-05-10T09:25:56.018Z,94376.78
2018-05-10T09:28:59.311Z,94367.44
2018-05-10T09:32:02.581Z,94361.34
2018-05-10T09:35:05.848Z,94363.45
2018-05-10T09:38:09.951Z,94360.05
2018-05-10T09:41:13.216Z,94368.91
2018-05-10T09:44:16.504Z,94366.02
2018-05-10T09:47:19.783Z,94360.61
2018-05-10T09:50:24.051Z,94374.67
2018-05-10T09:53:27.434Z,94378.86
2018-05-10T09:56:30.697Z,94382.59
2018-05-10T09:59:33.958Z,94391.37
2018-05-10T10:02:37.221Z,94390.01
2018-05-10T10:05:41.259Z,94394.09
2018-05-10T10:08:45.366Z,94392.66
2018-05-10T10:11:49.386Z,94394.34
2018-05-10T10:14:53.412Z,94405.28
2018-05-10T10:17:57.461Z,94394.63
2018-05-10T10:21:01.012Z,94393.09
2018-05-10T10:24:04.361Z,94408.72
2018-05-10T10:27:08.656Z,94399.47
2018-05-10T10:30:12.683Z,94397.42
2018-05-10T10:33:16.760Z,94395.50
2018-05-10T10:36:20.010Z,94409.14
2018-05-10T10:39:23.509Z,94407.15
2018-05-10T10:42:27.551Z,94405.81
2018-05-10T10:45:30.981Z,94408.65
2018-05-10T10:48:34.174Z,94400.59
2018-05-10T10:51:37.432Z,94407.77
2018-05-10T10:54:40.813Z,94410.43
2018-05-10T10:57:44.865Z,94413.41
2018-05-10T11:00:48.114Z,94410.11
2018-05-10T11:03:52.139Z,94396.12
2018-05-10T11:06:56.171Z,94399.50
2018-05-10T11:09:59.467Z,94394.55
2018-05-10T11:13:03.669Z,94403.53
2018-05-10T11:16:07.829Z,94408.75
2018-05-10T11:19:11.118Z,94405.29
2018-05-10T11:22:14.406Z,94410.83
2018-05-10T11:25:18.431Z,94410.45
2018-05-10T11:28:22.445Z,94409.66
2018-05-10T11:31:25.704Z,94399.02
2018-05-10T11:34:29.042Z,94405.45
2018-05-10T11:37:33.069Z,94401.25
2018-05-10T11:40:36.367Z,94409.64
2018-05-10T11:43:39.683Z,94410.15
2018-05-10T11:46:43.065Z,94407.64
2018-05-10T11:49:46.386Z,94408.86
2018-05-10T11:52:49.682Z,94410.18
2018-05-10T11:55:52.938Z,94421.23
2018-05-10T11:58:56.247Z,94412.91
2018-05-10T12:01:59.580Z,94412.63
2018-05-10T12:05:02.887Z,94405.35
2018-05-10T12:08:06.143Z,94408.67
2018-05-10T12:11:09.407Z,94424.29
2018-05-10T12:14:12.660Z,94422.52
2018-05-10T12:17:16.691Z,94430.82
2018-05-10T12:20:20.011Z,94435.69
2018-05-10T12:23:23.247Z,94431.62
2018-05-10T12:26:26.605Z,94433.48
2018-05-10T12:29:29.847Z,94446.80
2018-05-10T12:32:34.629Z,94450.09
2018-05-10T12:35:37.956Z,94439.38
2018-05-10T12:38:41.233Z,94443.36
2018-05-10T12:41:44.528Z,94439.69
2018-05-10T12:44:47.788Z,94441.31
2018-05-10T12:48:02.642Z,94445.82
2018-05-10T12:51:06.005Z,94446.34
2018-05-10T12:54:09.271Z,94448.95
2018-05-10T12:57:12.514Z,94448.14
2018-05-10T13:00:15.788Z,94452.91
2018-05-10T13:03:19.818Z,94470.81
2018-05-10T13:06:23.121Z,94470.84
2018-05-10T13:09:27.185Z,94473.39
2018-05-10T13:12:30.434Z,94470.05
2018-05-10T13:15:33.698Z,94474.10
2018-05-10T13:18:36.978Z,94479.88
2018-05-10T13:21:40.422Z,94479.86
2018-05-10T13:24:43.815Z,94487.16
2018-05-10T13:27:47.938Z,94487.67
2018-05-10T13:30:52.251Z,94486.92
2018-05-10T13:33:57.798Z,94495.84
2018-05-10T13:37:01.113Z,94488.60
2018-05-10T13:40:05.174Z,94494.82
2018-05-10T13:43:08.503Z,94495.68
2018-05-10T13:46:11.845Z,94487.64
2018-05-10T13:49:15.178Z,94482.27
2018-05-10T13:52:18.608Z,94481.02
2018-05-10T13:55:21.896Z,94493.00
2018-05-10T13:58:25.387Z,94484.70
2018-05-10T14:01:53.554Z,94493.02
2018-05-10T14:04:58.334Z,94509.89
2018-05-10T14:08:01.693Z,94499.73
2018-05-10T14:11:05.770Z,94505.70
2018-05-10T14:14:09.019Z,94519.89
2018-05-10T14:17:12.300Z,94520.61
2018-05-10T14:20:16.387Z,94512.99
2018-05-10T14:23:19.895Z,94526.68
2018-05-10T14:26:23.190Z,94517.73
2018-05-10T14:29:26.568Z,94522.44
2018-05-10T14:32:29.857Z,94529.03
2018-05-10T14:35:33.128Z,94521.58
2018-05-10T14:38:43.208Z,94532.47
2018-05-10T14:41:46.732Z,94540.67
2018-05-10T14:44:50.668Z,94544.27
2018-05-10T14:47:54.847Z,94552.84
2018-05-10T14:50:59.411Z,94549.76
2018-05-10T14:54:03.167Z,94551.55
2018-05-10T14:57:06.466Z,94559.77
2018-05-10T15:00:09.766Z,94571.41
2018-05-10T15:03:13.127Z,94566.59
2018-05-10T15:06:16.486Z,94571.02
2018-05-10T15:09:19.829Z,94576.29
2018-05-10T15:12:23.123Z,94592.45
2018-05-10T15:15:26.517Z,94587.33
2018-05-10T15:18:29.726Z,94598.47
2018-05-10T15:21:33.777Z,94605.27
2018-05-10T15:24:37.113Z,94602.81
2018-05-10T15:27:40.413Z,94612.98
2018-05-10T15:30:43.777Z,94625.39
2018-05-10T15:33:47.055Z,94614.72
2018-05-10T15:36:50.362Z,94619.86
2018-05-10T15:39:53.811Z,94617.11
2018-05-10T15:42:57.272Z,94626.53
2018-05-10T15:46:00.710Z,94629.91
2018-05-10T15:49:04.072Z,94632.91
2018-05-10T15:52:07.445Z,94642.53
2018-05-10T15:55:10.720Z,94645.72
2018-05-10T15:58:14.044Z,94652.52
2018-05-10T16:01:17.325Z,94655.84
2018-05-10T16:04:20.578Z,94658.19
2018-05-10T16:07:23.856Z,94656.87
2018-05-10T16:10:27.181Z,94658.99
2018-05-10T16:13:31.706Z,94657.64
2018-05-10T16:16:35.735Z,94663.78
2018-05-10T16:19:38.991Z,94667.63
2018-05-10T16:22:43.090Z,94672.42
2018-05-10T16:25:46.369Z,94670.14
2018-05-10T16:28:49.667Z,94675.67
2018-05-10T16:31:53.763Z,94672.22
2018-05-10T16:34:57.067Z,94680.10
2018-05-10T16:38:01.060Z,94682.42
2018-05-10T16:41:04.399Z,94681.08
2018-05-10T16:44:07.696Z,94689.36
2018-05-10T16:47:10.981Z,94689.54
2018-05-10T16:50:14.234Z,94693.19
2018-05-10T16:53:18.277Z,94700.69
2018-05-10T16:56:21.568Z,94704.33
2018-05-10T16:59:24.849Z,94712.79
2018-05-10T17:02:28.154Z,94714.66
2018-05-10T17:05:31.495Z,94716.97
2018-05-10T17:08:35.524Z,94718.86
2018-05-10T17:11:38.860Z,94730.16
2018-05-10T17:14:42.145Z,94728.06
2018-05-10T17:17:45.417Z,94734.59
2018-05-10T17:20:48.671Z,94750.92
2018-05-10T17:23:51.927Z,94746.72
2018-05-10T17:26:55.244Z,94754.25
2018-05-10T17:29:58.503Z,94764.19
2018-05-10T17:33:02.539Z,94765.52
2018-05-10T17:36:05.931Z,94772.79
2018-05-10T17:39:09.230Z,94792.33
2018-05-10T17:42:12.581Z,94795.16
2018-05-10T17:45:16.034Z,94808.35
2018-05-10T17:48:19.295Z,94807.52
2018-05-10T17:51:22.597Z,94815.80
2018-05-10T17:54:25.840Z,94820.33
2018-05-10T17:57:29.376Z,94829.31
2018-05-10T18:00:32.650Z,94836.41
2018-05-10T18:03:35.922Z,94837.98
2018-05-10T18:06:39.978Z,94842.70
2018-05-10T18:09:43.249Z,94851.28
2018-05-10T18:12:47.312Z,94857.98
2018-05-10T18:15:50.572Z,94861.88
2018-05-10T18:18:56.770Z,94862.02
2018-05-10T18:22:01.319Z,94870.26
2018-05-10T18:25:04.595Z,94874.78
2018-05-10T18:28:08.698Z,94884.58
2018-05-10T18:31:12.107Z,94885.30
2018-05-10T18:34:15.414Z,94891.83
2018-05-10T18:37:19.058Z,94891.20
2018-05-10T18:40:22.365Z,94905.17
2018-05-10T18:43:25.681Z,94910.64
2018-05-10T18:46:29.766Z,94914.05
2018-05-10T18:49:33.010Z,94911.21
2018-05-10T18:52:36.277Z,94918.91
2018-05-10T18:55:39.620Z,94922.20
2018-05-10T18:58:42.973Z,94924.70
2018-05-10T19:01:46.258Z,94942.04
2018-05-10T19:04:49.505Z,94946.69
2018-05-10T19:07:52.874Z,94949.25
2018-05-10T19:10:56.185Z,94955.87
2018-05-10T19:13:59.492Z,94973.17
2018-05-10T19:17:02.849Z,94976.89
2018-05-10T19:20:06.941Z,94985.31
2018-05-10T19:23:10.502Z,95000.23
2018-05-10T19:26:13.753Z,95012.18
2018-05-10T19:29:17.016Z,95010.31
2018-05-10T19:32:21.462Z,95019.64
2018-05-10T19:35:24.735Z,95026.00
2018-05-10T19:38:28.366Z,95036.85
2018-05-10T19:41:31.641Z,95036.25
2018-05-10T19:44:34.958Z,95042.34
2018-05-10T19:47:38.269Z,95049.27
2018-05-10T19:50:41.602Z,95060.97
2018-05-10T19:53:44.893Z,95073.72
2018-05-10T19:56:48.285Z,95084.15
2018-05-10T19:59:51.776Z,95094.61
2018-05-10T20:02:56.318Z,95110.55
2018-05-10T20:05:59.579Z,95114.39
2018-05-10T20:09:03.629Z,95122.19
2018-05-10T20:12:06.877Z,95131.23
2018-05-10T20:15:11.006Z,95137.14
2018-05-10T20:18:15.439Z,95143.33
2018-05-10T20:21:23.061Z,95147.02
2018-05-10T20:24:26.320Z,95155.63
2018-05-10T20:27:29.626Z,95170.27
2018-05-10T20:30:33.755Z,95172.48
2018-05-10T20:33:37.790Z,95191.95
2018-05-10T20:36:41.104Z,95187.45
2018-05-10T20:39:45.787Z,95201.08
2018-05-10T20:42:50.188Z,95209.81
2018-05-10T20:45:53.438Z,95217.59
2018-05-10T20:48:56.699Z,95224.93
2018-05-10T20:51:59.981Z,95221.00
2018-05-10T20:55:03.263Z,95221.81
2018-05-10T20:58:36.768Z,95235.56
2018-05-10T21:01:42.321Z,95232.05
2018-05-10T21:04:45.581Z,95245.78
2018-05-10T21:07:49.626Z,95244.52
2018-05-10T21:10:52.952Z,95242.73
2018-05-10T21:13:56.215Z,95244.83
2018-05-10T21:16:59.481Z,95248.17
2018-05-10T21:20:03.514Z,95251.02
2018-05-10T21:23:06.843Z,95255.24
2018-05-10T21:26:10.063Z,95261.80
2018-05-10T21:29:13.297Z,95266.41
2018-05-10T21:32:16.759Z,95269.94
2018-05-10T21:35:20.026Z,95269.57
2018-05-10T21:38:24.058Z,95272.04
2018-05-10T21:41:27.324Z,95282.07
2018-05-10T21:44:30.581Z,95286.30
2018-05-10T21:47:33.871Z,95282.37
2018-05-10T21:50:37.126Z,95282.27
2018-05-10T21:53:41.254Z,95287.41
2018-05-10T21:56:45.325Z,95297.11
2018-05-10T21:59:49.369Z,95301.16
2018-05-10T22:02:52.689Z,95305.06
2018-05-10T22:05:56.716Z,95305.56
2018-05-10T22:09:00.979Z,95311.25
2018-05-10T22:12:04.273Z,95307.66
2018-05-10T22:15:07.476Z,95311.78
2018-05-10T22:18:10.749Z,95309.30
2018-05-10T22:21:14.137Z,95311.14
2018-05-10T22:24:18.167Z,95309.75
2018-05-10T22:27:21.425Z,95313.15
2018-05-10T22:30:24.681Z,95312.17
2018-05-10T22:33:28.165Z,95313.31
2018-05-10T22:36:32.182Z,95312.03
2018-05-10T22:39:36.203Z,95310.37
2018-05-10T22:42:40.336Z,95314.07
2018-05-10T22:45:43.586Z,95309.67
2018-05-10T22:48:48.279Z,95314.13
2018-05-10T22:51:51.529Z,95315.81
2018-05-10T22:54:54.851Z,95311.04
2018-05-10T22:57:58.865Z,95309.67
2018-05-10T23:01:03.013Z,95309.67
2018-05-10T23:04:06.274Z,95319.47
2018-05-10T23:07:09.527Z,95319.50
2018-05-10T23:10:12.802Z,95320.04
2018-05-10T23:13:16.921Z,95323.36
2018-05-10T23:16:20.948Z,95319.67
2018-05-10T23:19:24.969Z,95318.83
2018-05-10T23:22:28.259Z,95317.58
2018-05-10T23:25:32.279Z,95311.36
2018-05-10T23:28:35.562Z,95305.16
2018-05-10T23:31:38.819Z,95306.84
2018-05-10T23:34:42.075Z,95306.34
2018-05-10T23:37:46.108Z,95301.16
2018-05-10T23:40:50.131Z,95292.93
2018-05-10T23:43:54.147Z,95293.56
2018-05-10T23:46:57.401Z,95295.51
2018-05-10T23:50:00.657Z,95299.88
2018-05-10T23:53:03.926Z,95300.39
2018-05-10T23:56:07.979Z,95305.14
2018-05-10T23:59:11.244Z,95305.19
